Velovelo
Português Nederlands 日本語 中文
Español English čeština slovenčina
русский italiano polski norsk
français Deutsch svenska عربي
 
 前一页
 推荐本章
 打印文章
 ---> La Midi Libre Cycl’Aigoual 2008 : Fusionné !! - Résultats du 98 km

- A = Classement meilleur temps par catégorie
- B = Participant soit au C d F ! soit à la cyclosportive (différents départs)

ClNomPrénomCat.ABTemps..Moy.
1 RANDON PHILIPPE H45-49 1 Cy 2:46:10 35,4
2 ZAMORA BENJAMIN H18-29 1 Cy 2:46:13 35,4
3 MARTIN YVES H50-54 1 Fr 2:49:09 34,8
4 LERAT MICHEL H50-54 2 Fr 2:50:32 34,5
5 MOREL GILLES H50-54 3 Fr 2:50:33 34,5
6 PERRIN JEAN LUC H50-54 4 Fr 2:50:34 34,5
7 MOCQUERY PATRICK H50-54 5 Fr 2:50:35 34,5
8 PORT PHILIPPE H50-54 6 Fr 2:51:09 34,4
9 FABRE CAMILLE H30-34 1 Cy 2:51:47 34,2
10 AUGUY JEREMY H18-29 2 Cy 2:52:09 34,2
11 MATHIEU STEPHANE H18-29 3 Cy 2:52:10 34,2
12 GERAUD ALAIN H50-54 7 Cy 2:52:12 34,1
13 CALVI BRUNO H50-54 8 Fr 2:53:15 33,9
14 PINEDE CHRISTIAN H45-49 2 Cy 2:54:05 33,8
15 CARAMEL MAXIME H18-29 4 Cy 2:54:07 33,8
16 ANGLIVIEL NICOLAS H35-39 1 Cy 2:54:08 33,8
17 BEVILACQUA SERGE H45-49 3 Cy 2:54:13 33,8
18 HERNANDEZ FRANCK H35-39 2 Cy 2:54:46 33,6
19 HENRY EMMANUEL HANDI 1 Cy 2:55:31 33,5
20 LAMONTAGNE PIERRE MARC H50-54 9 Fr 2:57:22 33,2
21 CORREAS LIBERTO H55-59 1 Fr 2:57:26 33,1
22 OLMEDA JEAN PAUL H50-54 10 Fr 2:57:29 33,1
23 FLOURET REMI H55-59 2 Fr 2:57:32 33,1
24 LUBESPERE JEAN FRANCOIS H50-54 11 Fr 2:57:38 33,1
25 SANFILIPPO DAVID H40-44 1 Cy 2:57:42 33,1
26 PINÇON JEAN-BAPTISTE H18-29 5 Cy 2:57:46 33,1
27 SOUCHON BENJAMIN H18-29 6 Cy 2:57:47 33,1
28 TOURNADRE GERARD H55-59 3 Fr 2:57:47 33,1
29 LAVAILL XAVIER H30-34 2 Cy 2:57:48 33,1
30 LOUX JOEL H50-54 12 Fr 2:57:50 33,1
31 PERRIER ROGER H55-59 4 Fr 2:57:55 33,0
32 MARAGA CLAUDE H50-54 13 Fr 2:57:59 33,0
33 FULCRAND GUY H55-59 5 Fr 2:58:07 33,0
34 TANGERMANN TIMOTHEUS H30-34 3 Cy 2:58:29 32,9
35 MARQUES JOSE H40-44 2 Cy 2:59:27 32,8
36 COURRIEU JEAN MICHEL H40-44 3 Cy 2:59:28 32,8
37 BILLARD JEAN LOUIS H45-49 4 Cy 2:59:29 32,8
38 CARRIERE THIBAUT H18-29 7 Cy 2:59:32 32,8
39 ROUX PHILIPPE H40-44 4 Cy 3:00:16 32,6
40 GODELLE FRANCK H40-44 5 Cy 3:00:18 32,6
41 CHABOD HENRI H45-49 5 Cy 3:00:21 32,6
42 FESQUET CHRISTOPHE H45-49 6 Cy 3:00:24 32,6
43 RAVIART OLIVIER H40-44 6 Cy 3:00:26 32,6
44 ROBIN MIREILLE F30-39 1 Fr 3:00:40 32,5
45 GENTIL CEDRIC H18-29 8 Cy 3:00:53 32,5
46 BOURDEL PIERRE H40-44 7 Cy 3:00:54 32,5
47 JEANJEAN GILLES H45-49 7 Cy 3:00:55 32,5
48 DUFRASNE GERARD H55-59 6 Fr 3:01:05 32,5
49 ARTIAGA PATRICK H45-49 8 Cy 3:01:09 32,5
50 MARIN JEAN FRANCOIS H45-49 9 Cy 3:01:36 32,4
51 BOUSQUET MARC H50-54 14 Fr 3:02:19 32,3
52 PIERRE DOMINIQUE H50-54 15 Fr 3:02:19 32,3
53 LECOULS JEAN CLAUDE H50-54 16 Fr 3:02:20 32,2
54 MARSEILLES JEAN PAUL H50-54 17 Fr 3:02:21 32,2
55 BOUCHER PIERRE H50-54 18 Fr 3:02:22 32,2
56 PROST ALAIN H50-54 19 Fr 3:02:23 32,2
57 REVEILLAS LIVIA F18-29 1 Cy 3:04:00 32,0
58 DELESSERT GUY H50-54 20 Cy 3:04:00 32,0
59 LAUSSEL PIERRE H50-54 21 Cy 3:04:02 32,0
60 FRANCE DORIAN H35-39 3 Cy 3:04:03 31,9
61 VETTOR THIERRY H40-44 8 Cy 3:04:04 31,9
62 PASCAL FABRICE H18-29 9 Cy 3:04:06 31,9
63 LEJEUNE ELOIC H30-34 4 Cy 3:04:07 31,9
64 CARRIER BORIS H35-39 4 Cy 3:04:10 31,9
65 DENEL FRANCK H50-54 22 Cy 3:04:12 31,9
66 MARTY GAEL H18-29 10 Cy 3:04:13 31,9
67 AUDRIN CHRISTIAN H40-44 9 Cy 3:04:24 31,9
68 MASSOT ROBERT H50-54 23 Fr 3:05:25 31,7
69 CHAPEL FABIEN H35-39 5 Cy 3:05:39 31,7
70 SAYSSET KARINE F30-39 2 Fr 3:05:48 31,6
71 PESENTI JEAN PIERRE H50-54 24 Fr 3:05:54 31,6
72 MAS GUY H50-54 25 Fr 3:05:57 31,6
73 LLOVERAS CLAUDE H40-44 10 Cy 3:08:59 31,1
74 BOURGOIN CLAUDE H50-54 26 Fr 3:09:43 31,0
75 COSTE GERARD H55-59 7 Cy 3:10:43 30,8
76 DUFOUR PATRICE H50-54 27 Cy 3:10:52 30,8
77 AT FREDERIC H35-39 6 Cy 3:10:59 30,8
78 CALIGO MATTHIEU H18-29 11 Cy 3:11:14 30,7
79 DEMAY CHARLES H55-59 8 Fr 3:11:15 30,7
80 GAGNIOUD PIERRE H55-59 9 Fr 3:11:17 30,7
81 LEQUEUX JEAN CLAUDE H40-44 11 Cy 3:11:31 30,7
82 PICH JEAN LUC H35-39 7 Cy 3:11:36 30,7
83 SAMBARIN JEAN FELIX H45-49 10 Cy 3:11:38 30,7
84 BRIANT JACQUES H60-64 1 Cy 3:11:51 30,6
85 DUPOUX PHILIPPE H45-49 11 Cy 3:12:04 30,6
86 VICTOR CHRISTELLE F30-39 3 Fr 3:12:06 30,6
87 TERRYN JEAN XAVIER H50-54 28 Fr 3:12:10 30,6
88 MONTAGUD FRANCOIS H40-44 12 Cy 3:12:30 30,5
89 CARRERE MICHEL H45-49 12 Cy 3:12:31 30,5
90 BRUGUIER FREDERIC H45-49 13 Cy 3:12:49 30,5
91 NOUET DIDIER H50-54 29 Fr 3:12:58 30,5
92 LALLEMAND GILLES H45-49 14 Cy 3:13:41 30,4
93 ROCH BRUNO H45-49 15 Cy 3:13:43 30,4
94 BARDE JEAN CHARLES H60-64 2 Cy 3:13:44 30,4
95 MAURICE JOEL H50-54 30 Cy 3:13:49 30,3
96 BOUQUIN MICHAEL H35-39 8 Cy 3:13:50 30,3
97 PEDULLA BRUNO H35-39 9 Cy 3:13:52 30,3
98 HERVIER JEAN LUC H50-54 31 Fr 3:13:58 30,3
99 LEMOINE PATRICK H50-54 32 Fr 3:14:01 30,3
100 ARTAUD CLAUDE H55-59 10 Fr 3:15:13 30,1
101 BALDUCCI ALFRED H55-59 11 Fr 3:15:14 30,1
102 FABRE PHILIPPE H40-44 13 Cy 3:15:15 30,1
103 GALLES JEAN-PAUL H55-59 12 Fr 3:15:23 30,1
104 HAK CHRISTEL F30-39 4 Fr 3:15:24 30,1
105 BRULETOURTE JACKY H60-64 3 Cy 3:15:42 30,0
106 HENRY / DELLACHERIE RICHARD / DANIEL Tandem 1 Cy 3:16:07 30,0
107 PESENTI CHRISTIAN H40-44 14 Cy 3:16:24 29,9
108 PESENTI ISABELLE F40-49 1 Cy 3:16:27 29,9
109 BOYER SERGE H45-49 16 Cy 3:16:35 29,9
110 SABUT JEAN PAUL H55-59 13 Fr 3:16:38 29,9
111 DAURIAT BRUNO H40-44 15 Cy 3:16:44 29,9
112 FOUCHOU LAPEYRADE CHRISTOPHE H35-39 10 Cy 3:16:53 29,9
113 AILLAUD THIERRY H45-49 17 Cy 3:17:02 29,8
114 MALARET PATRICK H55-59 14 Fr 3:17:25 29,8
115 LEGRAND YANNICK H45-49 18 Cy 3:17:28 29,8
116 BOISSIERE JENNIFER F30-39 5 Fr 3:17:30 29,8
117 FIGEAC ERIC H35-39 11 Cy 3:17:59 29,7
118 CRESPIN FRANCK H45-49 19 Cy 3:18:15 29,7
119 GILLES STEPHANE H30-34 5 Cy 3:18:18 29,7
120 MARTIN FREDDY H60-64 4 Cy 3:19:13 29,5
121 RICHARTE FRANCIS H40-44 16 Cy 3:19:23 29,5
122 FRANCES GUY H60-64 5 Cy 3:19:41 29,4
123 DUMAS STEPHANE H35-39 12 Cy 3:19:53 29,4
124 DAUGAS JOEL H35-39 13 Cy 3:20:23 29,3
125 LEMATTRE THIBAUT H30-34 6 Cy 3:20:27 29,3
126 PERRET MONIQUE F+50 1 Cy 3:20:28 29,3
127 BERTELOT CHRISTIAN H55-59 15 Fr 3:21:14 29,2
128 FABRE OLIVIER H35-39 14 Cy 3:21:16 29,2
129 BAUER DANIEL H40-44 17 Cy 3:21:20 29,2
130 GAUBERT GILLES H30-34 7 Cy 3:22:08 29,1
131 CABANTOUS DANIEL H60-64 6 Cy 3:22:15 29,1
132 LACOUR LAURENT H40-44 18 Cy 3:22:35 29,0
133 HOUDEBINE RENE H60-64 7 Cy 3:23:05 29,0
134 BRUEL JEAN LOUIS H50-54 33 Cy 3:23:08 28,9
135 MUSSET BERNARD H55-59 16 Cy 3:24:50 28,7
136 MAURICE ROBERT H55-59 17 Cy 3:25:29 28,6
137 COPPOLA GERALD H18-29 12 Cy 3:25:55 28,6
138 BALME WILLIAM H45-49 20 Cy 3:26:15 28,5
139 PECH FRANCIS H55-59 18 Fr 3:26:31 28,5
140 CARAYON PATRICK H35-39 15 Cy 3:26:33 28,5
141 CASTEX ELODIE F18-29 2 Cy 3:26:54 28,4
142 BRIE JEAN CLAUDE H55-59 19 Cy 3:26:58 28,4
143 MONTAGUD AUGUSTIN H50-54 34 Fr 3:28:34 28,2
144 ROUSSEL JEAN PIERRE H50-54 35 Fr 3:29:22 28,1
145 COAT BERNARD H60-64 8 Cy 3:30:09 28,0
146 BREILLOUX ALAIN H50-54 36 Cy 3:30:17 28,0
147 MARTINEZ JEAN H40-44 19 Cy 3:30:20 28,0
148 HALLEY FRANCIS H50-54 37 Cy 3:30:53 27,9
149 FREMOND JEAN PIERRE H55-59 20 Fr 3:30:59 27,9
150 MERCIER ALAIN H50-54 38 Cy 3:31:00 27,9
151 RAVET CLAUDE H50-54 39 Cy 3:32:00 27,7
152 RAVAILHE FRANCIS H55-59 21 Cy 3:32:03 27,7
153 GOUTTEBARON OLIVIER H35-39 16 Cy 3:32:05 27,7
154 SAGNARD NOURI H45-49 21 Cy 3:32:19 27,7
155 REQUENA DANIEL H55-59 22 Cy 3:32:28 27,7
156 BALANDRAUD PIERRE H+65 1 Cy 3:32:55 27,6
157 CAZENOVE RICHARD H55-59 23 Fr 3:34:18 27,4
158 MICHAELI JEAN JACQUES H55-59 24 Fr 3:34:33 27,4
159 LOPEZ PHILIPPE H40-44 20 Cy 3:35:04 27,3
160 LAFITE MARC H55-59 25 Cy 3:35:39 27,3
161 LORENT JEAN FRANCOIS H40-44 21 Cy 3:36:02 27,2
162 CHICHEPORTICHE MICHEL H60-64 9 Cy 3:36:03 27,2
163 CURBILIE BERNARD H60-64 10 Cy 3:36:28 27,2
164 COULANGES THIERRY H40-44 22 Cy 3:37:22 27,1
165 SIFFRE JEAN MARIE H35-39 17 Cy 3:37:26 27,0
166 REDONDO ANTOINE H55-59 26 Cy 3:37:32 27,0
167 TURK ALBERT H55-59 27 Cy 3:38:23 26,9
168 VITAL ALAIN H+65 2 Cy 3:38:29 26,9
169 GILLI GERARD H55-59 28 Cy 3:38:46 26,9
170 SALUZZO GABRIEL H50-54 40 Cy 3:38:58 26,9
171 CROSS ALAN H60-64 11 Cy 3:39:24 26,8
172 VITOU ALAIN H45-49 22 Cy 3:39:51 26,7
173 GARCIA NARDO H60-64 12 Cy 3:40:28 26,7
174 JEZEQUEL PIERRE H45-49 23 Cy 3:40:30 26,7
175 LATOUR FRANCOIS H50-54 41 Cy 3:40:33 26,7
176 CAZAUX JEAN MICHEL H40-44 23 Cy 3:40:35 26,7
177 SAY DOMINIQUE H55-59 29 Cy 3:40:37 26,7
178 CORBI PATRICK H45-49 24 Cy 3:42:53 26,4
179 CANALS MICHEL H45-49 25 Cy 3:43:03 26,4
180 FAY PHILIPPE H35-39 18 Cy 3:43:17 26,3
181 CHABBERT HENRI NOEL H50-54 42 Cy 3:43:20 26,3
182 GENTIL PASCAL H45-49 26 Cy 3:44:40 26,2
183 KAPLANSKI BERNARD H50-54 43 Cy 3:44:46 26,2
184 BENOIT JEAN CLAUDE H35-39 19 Cy 3:45:20 26,1
185 GALLEZ JEAN PAUL H55-59 30 Fr 3:45:26 26,1
186 ROLLAND REGIS H40-44 24 Cy 3:45:28 26,1
187 GAUSACH ALEXIS H45-49 27 Cy 3:45:52 26,0
188 ESMANS ERIC H45-49 28 Cy 3:46:52 25,9
189 ROBERT STEPHANIE F18-29 3 Cy 3:46:53 25,9
190 MAYER DANIEL H55-59 31 Cy 3:46:53 25,9
191 DUMON PATRICIA F+50 2 Cy 3:46:54 25,9
192 SABATIER MARIE JEANNE F40-49 2 Cy 3:46:55 25,9
193 SABATIER THIERRY H45-49 29 Cy 3:46:57 25,9
194 MARTINEZ JEAN CLAUDE H55-59 32 Cy 3:46:58 25,9
195 GONZALEZ ALAIN H45-49 30 Cy 3:47:01 25,9
196 BOMPARD CHRISTIAN H55-59 33 Cy 3:47:39 25,8
197 GIMENEZ JEAN CLAUDE H50-54 44 Cy 3:48:15 25,8
198 MAUREL ALAIN H45-49 31 Cy 3:48:18 25,8
199 MILLET JACQUES H45-49 32 Cy 3:48:23 25,7
200 ROBELET JEAN CLAUDE H55-59 34 Fr 3:49:20 25,6
201 MOUCHE JEAN-YVES H+65 3 Cy 3:50:18 25,5
202 MEDIONI PIERRE H40-44 25 Cy 3:50:55 25,5
203 LEFEVRE FLORE F30-39 6 Cy 3:51:16 25,4
204 VAZQUEZ THIERRY H40-44 26 Cy 3:51:19 25,4
205 DUMAS GILBERT H60-64 13 Cy 3:51:59 25,3
206 ZERILLI PASCAL H40-44 27 Cy 3:52:00 25,3
207 HENRY GERARD H45-49 33 Cy 3:52:01 25,3
208 BASTIN ANDRE H60-64 14 Cy 3:52:02 25,3
209 THIEULE BERNARD H60-64 15 Cy 3:52:57 25,2
210 TURC JEAN PIERRE H50-54 45 Cy 3:53:08 25,2
211 VALETTE SERGE H55-59 35 Cy 3:53:17 25,2
212 BEAUMONT LAURENCE F40-49 3 Cy 3:54:06 25,1
213 LAGNEAU CHRISTOPHE H50-54 46 Cy 3:54:07 25,1
214 LANDIER ANDRE H+65 4 Cy 3:54:08 25,1
215 POIROT THIERRY H45-49 34 Cy 3:55:31 25,0
216 SANCHEZ MARC H50-54 47 Cy 3:55:41 24,9
217 TACHE MURIEL F30-39 7 Cy 4:02:08 24,3
218 BRESSON LIONNEL H45-49 35 Cy 4:02:25 24,3
219 RESCHKE JEAN-GREGOIRE H40-44 28 Cy 4:02:34 24,2
220 METGE DAVID H30-34 8 Cy 4:02:40 24,2
221 MARINONI MATHIAS H18-29 13 Cy 4:02:43 24,2
222 ALBINET CLAUDE H55-59 36 Cy 4:02:48 24,2
223 CHEVE PATRICK H55-59 37 Cy 4:02:51 24,2
224 TABOURET JEAN MARC H40-44 29 Cy 4:03:00 24,2
225 VALEZI RENE H55-59 38 Cy 4:03:11 24,2
226 PIGNATO PIERRE H45-49 36 Cy 4:03:28 24,2
227 FRIES FABRICE H35-39 20 Cy 4:03:31 24,1
228 MANDART NADEGE F18-29 4 Cy 4:04:47 24,0
229 KLEIN DAVID H35-39 21 Cy 4:06:08 23,9
230 CARRIERE CLAUDE H50-54 48 Cy 4:09:05 23,6
231 COULAROU CHRISTINE F+50 3 Cy 4:09:31 23,6
232 MARTINEZ JEAN FRANCOIS H+65 5 Cy 4:09:36 23,6
233 BARATAUD PATRICK H45-49 37 Cy 4:09:57 23,5
234 BARBE PATRICE H50-54 49 Cy 4:10:43 23,5
235 CROUZET CHRISTIAN H50-54 50 Cy 4:11:30 23,4
236 HOUDEBINE JEAN PIERRE H60-64 16 Cy 4:14:58 23,1
237 PIQUET PHILIPPE H40-44 30 Cy 4:15:48 23,0
238 BALESTER PASCAL H40-44 31 Cy 4:15:51 23,0
239 BEVIS HELEN F40-49 4 Cy 4:16:06 23,0
240 AMERAS HEYRAUD LAURENT H35-39 22 Cy 4:19:04 22,7
241 CHABBERT NATHALIE F40-49 5 Cy 4:19:20 22,7
242 MARTINEZ OLIVIER H35-39 23 Cy 4:19:41 22,6
243 RAULIN DELPHINE F30-39 8 Cy 4:19:44 22,6
244 SABLOS CLAUDINE F+50 4 Cy 4:19:49 22,6
245 DAUMOND JEAN CLAUDE H60-64 17 Cy 4:19:56 22,6
246 DERUSCHI FREDERIC H45-49 38 Cy 4:19:57 22,6
247 GASSION MARCEL H40-44 32 Cy 4:19:58 22,6
248 SZABO PATRICK H55-59 39 Cy 4:23:24 22,3
249 PORTALEZ JEAN LUC H50-54 51 Cy 4:23:45 22,3
250 VEZINET NICOLAS H30-34 9 Cy 4:24:03 22,3
251 COLAS ALBERT H50-54 52 Cy 4:25:25 22,2
252 REYNAUD THIERRY H40-44 33 Cy 4:28:43 21,9
253 PREVOT JEAN CHRISTOPHE H40-44 34 Cy 4:30:54 21,7
254 PAGES LUDOVIC H30-34 10 Cy 4:32:18 21,6
255 FAIZANDIE MARCEL H60-64 18 Cy 4:32:54 21,5
256 JAOUL LAURENT H40-44 35 Cy 4:32:57 21,5
257 SARREBOUBEE JOEL H55-59 40 Cy 4:34:27 21,4
258 GUILLOBEZ BERNADETTE F+50 5 Cy 4:39:34 21,0
259 VALADAS ERIC H45-49 39 Cy 4:39:48 21,0
260 BERGER JEAN YVES H50-54 53 Cy 4:39:56 21,0
261 GASQUE LUCIEN H50-54 54 Cy 4:40:55 20,9
262 BOIRAUD BERNARD H50-54 55 Cy 4:41:03 20,9
263 VALVERDE JOSE H40-44 36 Cy 4:42:28 20,8
264 MATHIEU JEAN CLAUDE H55-59 41 Cy 4:47:46 20,4
265 PRABONNEAU DOMINIQUE H+65 6 Cy 5:07:50 19,1

- Voir -> La Midi Libre Cycl’Aigoual 2008 : Fusionné !! - Résultats du 65 km
- Voir -> La Midi Libre Cycl’Aigoual 2008 : Fusionné !! - Résultats du 133 km

顶部 









顶部  
 私有区   作者版权 – 版权所有: 请点击 这里 查看!